sensor_id;sensor_type;location;lat;lon;timestamp;temperature;humidity
52016;DHT22;38032;53.326;6.472;2022-12-18T00:01:20;-1.70;99.90
52016;DHT22;38032;53.326;6.472;2022-12-18T00:03:47;-1.80;99.90
52016;DHT22;38032;53.326;6.472;2022-12-18T00:06:13;-1.80;99.90
52016;DHT22;38032;53.326;6.472;2022-12-18T00:08:41;-1.80;99.90
52016;DHT22;38032;53.326;6.472;2022-12-18T00:11:10;-1.80;99.90
52016;DHT22;38032;53.326;6.472;2022-12-18T00:13:36;-1.80;99.90
52016;DHT22;38032;53.326;6.472;2022-12-18T00:16:04;-1.70;99.90
52016;DHT22;38032;53.326;6.472;2022-12-18T00:18:30;-1.70;99.90
52016;DHT22;38032;53.326;6.472;2022-12-18T00:20:59;-1.70;99.90
52016;DHT22;38032;53.326;6.472;2022-12-18T00:23:26;-1.70;99.90
52016;DHT22;38032;53.326;6.472;2022-12-18T00:25:52;-1.70;99.90
52016;DHT22;38032;53.326;6.472;2022-12-18T00:28:18;-1.70;99.90
52016;DHT22;38032;53.326;6.472;2022-12-18T00:30:44;-1.70;99.90
52016;DHT22;38032;53.326;6.472;2022-12-18T00:33:10;-1.70;99.90
52016;DHT22;38032;53.326;6.472;2022-12-18T00:35:36;-1.70;99.90
52016;DHT22;38032;53.326;6.472;2022-12-18T00:38:01;-1.80;99.90
52016;DHT22;38032;53.326;6.472;2022-12-18T00:40:27;-1.80;99.90
52016;DHT22;38032;53.326;6.472;2022-12-18T00:42:53;-1.90;99.90
52016;DHT22;38032;53.326;6.472;2022-12-18T00:45:28;-1.90;99.90
52016;DHT22;38032;53.326;6.472;2022-12-18T00:47:54;-2.00;99.90
52016;DHT22;38032;53.326;6.472;2022-12-18T00:50:21;-2.10;99.90
52016;DHT22;38032;53.326;6.472;2022-12-18T00:52:47;-2.20;99.90
52016;DHT22;38032;53.326;6.472;2022-12-18T00:55:13;-2.20;99.90
52016;DHT22;38032;53.326;6.472;2022-12-18T00:57:39;-2.20;99.90
52016;DHT22;38032;53.326;6.472;2022-12-18T01:00:09;-2.20;99.90
52016;DHT22;38032;53.326;6.472;2022-12-18T01:02:36;-2.20;99.90
52016;DHT22;38032;53.326;6.472;2022-12-18T01:05:04;-2.10;99.90
52016;DHT22;38032;53.326;6.472;2022-12-18T01:07:30;-2.10;99.90
52016;DHT22;38032;53.326;6.472;2022-12-18T01:09:56;-2.10;99.90
52016;DHT22;38032;53.326;6.472;2022-12-18T01:12:22;-2.10;99.90
52016;DHT22;38032;53.326;6.472;2022-12-18T01:14:47;-2.10;99.90
52016;DHT22;38032;53.326;6.472;2022-12-18T01:17:13;-2.10;99.90
52016;DHT22;38032;53.326;6.472;2022-12-18T01:19:40;-2.20;99.90
52016;DHT22;38032;53.326;6.472;2022-12-18T01:22:05;-2.10;99.90
52016;DHT22;38032;53.326;6.472;2022-12-18T01:24:31;-2.20;99.90
52016;DHT22;38032;53.326;6.472;2022-12-18T01:26:57;-2.20;99.90
52016;DHT22;38032;53.326;6.472;2022-12-18T01:29:23;-2.10;99.90
52016;DHT22;38032;53.326;6.472;2022-12-18T01:31:49;-2.10;99.90
52016;DHT22;38032;53.326;6.472;2022-12-18T01:34:15;-2.10;99.90
52016;DHT22;38032;53.326;6.472;2022-12-18T01:36:41;-2.00;99.90
52016;DHT22;38032;53.326;6.472;2022-12-18T01:39:11;-2.00;99.90
52016;DHT22;38032;53.326;6.472;2022-12-18T01:41:38;-2.00;99.90
52016;DHT22;38032;53.326;6.472;2022-12-18T01:44:50;-2.00;99.90
52016;DHT22;38032;53.326;6.472;2022-12-18T01:47:23;-2.00;99.90
52016;DHT22;38032;53.326;6.472;2022-12-18T01:49:51;-2.10;99.90
52016;DHT22;38032;53.326;6.472;2022-12-18T01:52:17;-2.10;99.90
52016;DHT22;38032;53.326;6.472;2022-12-18T01:54:45;-2.10;99.90
52016;DHT22;38032;53.326;6.472;2022-12-18T01:57:11;-2.10;99.90
52016;DHT22;38032;53.326;6.472;2022-12-18T01:59:39;-2.10;99.90
52016;DHT22;38032;53.326;6.472;2022-12-18T02:02:06;-2.10;99.90
52016;DHT22;38032;53.326;6.472;2022-12-18T02:04:33;-2.10;99.90
52016;DHT22;38032;53.326;6.472;2022-12-18T02:07:17;-2.20;99.90
52016;DHT22;38032;53.326;6.472;2022-12-18T02:09:50;-2.20;99.90
52016;DHT22;38032;53.326;6.472;2022-12-18T02:12:23;-2.20;99.90
52016;DHT22;38032;53.326;6.472;2022-12-18T02:15:03;-2.20;99.90
52016;DHT22;38032;53.326;6.472;2022-12-18T02:17:43;-2.30;99.90
52016;DHT22;38032;53.326;6.472;2022-12-18T02:25:51;-2.50;99.90
52016;DHT22;38032;53.326;6.472;2022-12-18T02:28:20;-2.50;99.90
52016;DHT22;38032;53.326;6.472;2022-12-18T02:30:49;-2.60;99.90
52016;DHT22;38032;53.326;6.472;2022-12-18T02:33:17;-2.60;99.90
52016;DHT22;38032;53.326;6.472;2022-12-18T02:35:45;-2.70;99.90
52016;DHT22;38032;53.326;6.472;2022-12-18T02:38:12;-2.80;99.90
52016;DHT22;38032;53.326;6.472;2022-12-18T02:40:40;-2.90;99.90
52016;DHT22;38032;53.326;6.472;2022-12-18T02:43:09;-2.90;99.90
52016;DHT22;38032;53.326;6.472;2022-12-18T02:45:35;-3.00;99.90
52016;DHT22;38032;53.326;6.472;2022-12-18T02:48:01;-3.00;99.90
52016;DHT22;38032;53.326;6.472;2022-12-18T02:50:35;-3.00;99.90
52016;DHT22;38032;53.326;6.472;2022-12-18T02:53:26;-3.10;99.90
52016;DHT22;38032;53.326;6.472;2022-12-18T02:56:09;-3.20;99.90
52016;DHT22;38032;53.326;6.472;2022-12-18T03:01:34;-3.30;99.90
52016;DHT22;38032;53.326;6.472;2022-12-18T03:04:07;-3.40;99.90
52016;DHT22;38032;53.326;6.472;2022-12-18T03:06:37;-3.40;99.90
52016;DHT22;38032;53.326;6.472;2022-12-18T03:09:10;-3.50;99.90
52016;DHT22;38032;53.326;6.472;2022-12-18T03:11:41;-3.50;99.90
52016;DHT22;38032;53.326;6.472;2022-12-18T03:14:31;-3.60;99.90
52016;DHT22;38032;53.326;6.472;2022-12-18T03:17:02;-3.70;99.90
52016;DHT22;38032;53.326;6.472;2022-12-18T03:19:32;-3.70;99.90
52016;DHT22;38032;53.326;6.472;2022-12-18T03:21:59;-3.80;99.90
52016;DHT22;38032;53.326;6.472;2022-12-18T03:24:28;-3.80;99.90
52016;DHT22;38032;53.326;6.472;2022-12-18T03:26:58;-3.70;99.90
52016;DHT22;38032;53.326;6.472;2022-12-18T03:32:05;-3.60;99.90
52016;DHT22;38032;53.326;6.472;2022-12-18T03:34:35;-3.60;99.90
52016;DHT22;38032;53.326;6.472;2022-12-18T03:37:03;-3.60;99.90
52016;DHT22;38032;53.326;6.472;2022-12-18T03:39:30;-3.60;99.90
52016;DHT22;38032;53.326;6.472;2022-12-18T03:42:21;-3.60;99.90
52016;DHT22;38032;53.326;6.472;2022-12-18T03:44:54;-3.50;99.90
52016;DHT22;38032;53.326;6.472;2022-12-18T03:50:03;-3.50;99.90
52016;DHT22;38032;53.326;6.472;2022-12-18T03:52:39;-3.50;99.90
52016;DHT22;38032;53.326;6.472;2022-12-18T03:55:09;-3.60;99.90
52016;DHT22;38032;53.326;6.472;2022-12-18T03:57:36;-3.70;99.90
52016;DHT22;38032;53.326;6.472;2022-12-18T04:00:08;-3.70;99.90
52016;DHT22;38032;53.326;6.472;2022-12-18T04:02:37;-3.70;99.90
52016;DHT22;38032;53.326;6.472;2022-12-18T04:05:06;-3.70;99.90
52016;DHT22;38032;53.326;6.472;2022-12-18T04:07:33;-3.70;99.90
52016;DHT22;38032;53.326;6.472;2022-12-18T04:10:01;-3.70;99.90
52016;DHT22;38032;53.326;6.472;2022-12-18T04:12:29;-3.70;99.90
52016;DHT22;38032;53.326;6.472;2022-12-18T04:14:55;-3.70;99.90
52016;DHT22;38032;53.326;6.472;2022-12-18T04:17:21;-3.70;99.90
52016;DHT22;38032;53.326;6.472;2022-12-18T04:19:48;-3.80;99.90
52016;DHT22;38032;53.326;6.472;2022-12-18T04:22:13;-3.80;99.90
52016;DHT22;38032;53.326;6.472;2022-12-18T04:24:39;-3.90;99.90
52016;DHT22;38032;53.326;6.472;2022-12-18T04:27:05;-4.00;99.90
52016;DHT22;38032;53.326;6.472;2022-12-18T04:29:31;-4.00;99.90
52016;DHT22;38032;53.326;6.472;2022-12-18T04:31:57;-4.10;99.90
52016;DHT22;38032;53.326;6.472;2022-12-18T04:34:23;-4.10;99.90
52016;DHT22;38032;53.326;6.472;2022-12-18T04:36:49;-4.20;99.90
52016;DHT22;38032;53.326;6.472;2022-12-18T04:39:20;-4.20;99.90
52016;DHT22;38032;53.326;6.472;2022-12-18T04:41:46;-4.20;99.90
52016;DHT22;38032;53.326;6.472;2022-12-18T04:44:13;-4.20;99.90
52016;DHT22;38032;53.326;6.472;2022-12-18T04:46:39;-4.20;99.90
52016;DHT22;38032;53.326;6.472;2022-12-18T04:49:05;-4.20;99.90
52016;DHT22;38032;53.326;6.472;2022-12-18T04:51:31;-4.20;99.90
52016;DHT22;38032;53.326;6.472;2022-12-18T04:53:57;-4.20;99.90
52016;DHT22;38032;53.326;6.472;2022-12-18T04:56:22;-4.20;99.90
52016;DHT22;38032;53.326;6.472;2022-12-18T04:58:49;-4.20;99.90
52016;DHT22;38032;53.326;6.472;2022-12-18T05:01:16;-4.20;99.90
52016;DHT22;38032;53.326;6.472;2022-12-18T05:03:43;-4.20;99.90
52016;DHT22;38032;53.326;6.472;2022-12-18T05:06:09;-4.30;99.90
52016;DHT22;38032;53.326;6.472;2022-12-18T05:08:35;-4.30;99.90
52016;DHT22;38032;53.326;6.472;2022-12-18T05:11:03;-4.30;99.90
52016;DHT22;38032;53.326;6.472;2022-12-18T05:13:29;-4.30;99.90
52016;DHT22;38032;53.326;6.472;2022-12-18T05:15:55;-4.40;99.90
52016;DHT22;38032;53.326;6.472;2022-12-18T05:18:22;-4.40;99.90
52016;DHT22;38032;53.326;6.472;2022-12-18T05:20:50;-4.40;99.90
52016;DHT22;38032;53.326;6.472;2022-12-18T05:23:16;-4.40;99.90
52016;DHT22;38032;53.326;6.472;2022-12-18T05:25:42;-4.40;99.90
52016;DHT22;38032;53.326;6.472;2022-12-18T05:28:07;-4.40;99.90
52016;DHT22;38032;53.326;6.472;2022-12-18T05:30:33;-4.40;99.90
52016;DHT22;38032;53.326;6.472;2022-12-18T05:32:59;-4.40;99.90
52016;DHT22;38032;53.326;6.472;2022-12-18T05:35:25;-4.50;99.90
52016;DHT22;38032;53.326;6.472;2022-12-18T05:37:51;-4.50;99.90
52016;DHT22;38032;53.326;6.472;2022-12-18T05:40:17;-4.40;99.90
52016;DHT22;38032;53.326;6.472;2022-12-18T05:42:43;-4.40;99.90
52016;DHT22;38032;53.326;6.472;2022-12-18T05:45:09;-4.40;99.90
52016;DHT22;38032;53.326;6.472;2022-12-18T05:47:35;-4.40;99.90
52016;DHT22;38032;53.326;6.472;2022-12-18T05:50:00;-4.40;99.90
52016;DHT22;38032;53.326;6.472;2022-12-18T05:52:26;-4.40;99.90
52016;DHT22;38032;53.326;6.472;2022-12-18T05:54:52;-4.40;99.90
52016;DHT22;38032;53.326;6.472;2022-12-18T05:57:18;-4.30;99.90
52016;DHT22;38032;53.326;6.472;2022-12-18T05:59:44;-4.30;99.90
52016;DHT22;38032;53.326;6.472;2022-12-18T06:02:10;-4.30;99.90
52016;DHT22;38032;53.326;6.472;2022-12-18T06:04:54;-4.30;99.90
52016;DHT22;38032;53.326;6.472;2022-12-18T06:07:20;-4.20;99.90
52016;DHT22;38032;53.326;6.472;2022-12-18T06:09:46;-4.30;99.90
52016;DHT22;38032;53.326;6.472;2022-12-18T06:12:12;-4.40;99.90
52016;DHT22;38032;53.326;6.472;2022-12-18T06:14:37;-4.40;99.90
52016;DHT22;38032;53.326;6.472;2022-12-18T06:17:04;-4.50;99.90
52016;DHT22;38032;53.326;6.472;2022-12-18T06:19:30;-4.50;99.90
52016;DHT22;38032;53.326;6.472;2022-12-18T06:21:55;-4.60;99.90
52016;DHT22;38032;53.326;6.472;2022-12-18T06:24:24;-4.60;99.90
52016;DHT22;38032;53.326;6.472;2022-12-18T06:26:50;-4.70;99.90
52016;DHT22;38032;53.326;6.472;2022-12-18T06:29:16;-4.80;99.90
52016;DHT22;38032;53.326;6.472;2022-12-18T06:31:42;-4.80;99.90
52016;DHT22;38032;53.326;6.472;2022-12-18T06:34:07;-4.80;99.90
52016;DHT22;38032;53.326;6.472;2022-12-18T06:36:33;-4.80;99.90
52016;DHT22;38032;53.326;6.472;2022-12-18T06:38:59;-4.80;99.90
52016;DHT22;38032;53.326;6.472;2022-12-18T06:41:25;-4.80;99.90
52016;DHT22;38032;53.326;6.472;2022-12-18T06:43:51;-4.80;99.90
52016;DHT22;38032;53.326;6.472;2022-12-18T06:46:17;-4.70;99.90
52016;DHT22;38032;53.326;6.472;2022-12-18T06:48:46;-4.70;99.90
52016;DHT22;38032;53.326;6.472;2022-12-18T06:51:16;-4.70;99.90
52016;DHT22;38032;53.326;6.472;2022-12-18T06:53:42;-4.60;99.90
52016;DHT22;38032;53.326;6.472;2022-12-18T06:56:08;-4.50;99.90
52016;DHT22;38032;53.326;6.472;2022-12-18T06:58:34;-4.50;99.90
52016;DHT22;38032;53.326;6.472;2022-12-18T07:01:03;-4.40;99.90
52016;DHT22;38032;53.326;6.472;2022-12-18T07:03:29;-4.40;99.90
52016;DHT22;38032;53.326;6.472;2022-12-18T07:05:56;-4.40;99.90
52016;DHT22;38032;53.326;6.472;2022-12-18T07:08:22;-4.30;99.90
52016;DHT22;38032;53.326;6.472;2022-12-18T07:10:48;-4.30;99.90
52016;DHT22;38032;53.326;6.472;2022-12-18T07:13:15;-4.20;99.90
52016;DHT22;38032;53.326;6.472;2022-12-18T07:15:43;-4.20;99.90
52016;DHT22;38032;53.326;6.472;2022-12-18T07:18:10;-4.10;99.90
52016;DHT22;38032;53.326;6.472;2022-12-18T07:20:36;-4.10;99.90
52016;DHT22;38032;53.326;6.472;2022-12-18T07:23:03;-4.10;99.90
52016;DHT22;38032;53.326;6.472;2022-12-18T07:25:29;-4.00;99.90
52016;DHT22;38032;53.326;6.472;2022-12-18T07:27:55;-4.00;99.90
52016;DHT22;38032;53.326;6.472;2022-12-18T07:30:21;-4.00;99.90
52016;DHT22;38032;53.326;6.472;2022-12-18T07:32:46;-4.00;99.90
52016;DHT22;38032;53.326;6.472;2022-12-18T07:35:12;-3.90;99.90
52016;DHT22;38032;53.326;6.472;2022-12-18T07:37:38;-3.90;99.90
52016;DHT22;38032;53.326;6.472;2022-12-18T07:40:05;-3.90;99.90
52016;DHT22;38032;53.326;6.472;2022-12-18T07:42:31;-3.80;99.90
52016;DHT22;38032;53.326;6.472;2022-12-18T07:44:58;-3.80;99.90
52016;DHT22;38032;53.326;6.472;2022-12-18T07:47:25;-3.80;99.90
52016;DHT22;38032;53.326;6.472;2022-12-18T07:49:51;-3.70;99.90
52016;DHT22;38032;53.326;6.472;2022-12-18T07:52:17;-3.70;99.90
52016;DHT22;38032;53.326;6.472;2022-12-18T07:54:43;-3.60;99.90
52016;DHT22;38032;53.326;6.472;2022-12-18T07:57:09;-3.60;99.90
52016;DHT22;38032;53.326;6.472;2022-12-18T07:59:35;-3.50;99.90
52016;DHT22;38032;53.326;6.472;2022-12-18T08:02:01;-3.50;99.90
52016;DHT22;38032;53.326;6.472;2022-12-18T08:04:27;-3.40;99.90
52016;DHT22;38032;53.326;6.472;2022-12-18T08:06:53;-3.40;99.90
52016;DHT22;38032;53.326;6.472;2022-12-18T08:09:18;-3.40;99.90
52016;DHT22;38032;53.326;6.472;2022-12-18T08:11:44;-3.40;99.90
52016;DHT22;38032;53.326;6.472;2022-12-18T08:14:10;-3.40;99.90
52016;DHT22;38032;53.326;6.472;2022-12-18T08:16:36;-3.30;99.90
52016;DHT22;38032;53.326;6.472;2022-12-18T08:19:03;-3.30;99.90
52016;DHT22;38032;53.326;6.472;2022-12-18T08:21:30;-3.20;99.90
52016;DHT22;38032;53.326;6.472;2022-12-18T08:23:59;-3.10;99.90
52016;DHT22;38032;53.326;6.472;2022-12-18T08:26:27;-3.10;99.90
52016;DHT22;38032;53.326;6.472;2022-12-18T08:28:55;-3.00;99.90
52016;DHT22;38032;53.326;6.472;2022-12-18T08:31:22;-2.90;99.90
52016;DHT22;38032;53.326;6.472;2022-12-18T08:33:51;-2.80;99.90
52016;DHT22;38032;53.326;6.472;2022-12-18T08:36:18;-2.70;99.90
52016;DHT22;38032;53.326;6.472;2022-12-18T08:38:46;-2.70;99.90
52016;DHT22;38032;53.326;6.472;2022-12-18T08:41:13;-2.60;99.90
52016;DHT22;38032;53.326;6.472;2022-12-18T08:43:40;-2.60;99.90
52016;DHT22;38032;53.326;6.472;2022-12-18T08:46:27;-2.60;99.90
52016;DHT22;38032;53.326;6.472;2022-12-18T08:48:54;-2.60;99.90
52016;DHT22;38032;53.326;6.472;2022-12-18T08:51:21;-2.60;99.90
52016;DHT22;38032;53.326;6.472;2022-12-18T08:53:47;-2.70;99.90
52016;DHT22;38032;53.326;6.472;2022-12-18T08:56:14;-2.70;99.90
52016;DHT22;38032;53.326;6.472;2022-12-18T08:58:40;-2.70;99.90
52016;DHT22;38032;53.326;6.472;2022-12-18T09:01:09;-2.70;99.90
52016;DHT22;38032;53.326;6.472;2022-12-18T09:03:35;-2.60;99.90
52016;DHT22;38032;53.326;6.472;2022-12-18T09:06:02;-2.50;99.90
52016;DHT22;38032;53.326;6.472;2022-12-18T09:08:28;-2.40;99.90
52016;DHT22;38032;53.326;6.472;2022-12-18T09:10:54;-2.30;99.90
52016;DHT22;38032;53.326;6.472;2022-12-18T09:13:21;-2.10;99.90
52016;DHT22;38032;53.326;6.472;2022-12-18T09:15:49;-2.00;99.90
52016;DHT22;38032;53.326;6.472;2022-12-18T09:18:16;-1.90;99.90
52016;DHT22;38032;53.326;6.472;2022-12-18T09:20:43;-1.80;99.90
52016;DHT22;38032;53.326;6.472;2022-12-18T09:23:10;-1.70;99.90
52016;DHT22;38032;53.326;6.472;2022-12-18T09:25:37;-1.60;99.90
52016;DHT22;38032;53.326;6.472;2022-12-18T09:28:06;-1.50;99.90
52016;DHT22;38032;53.326;6.472;2022-12-18T09:30:32;-1.50;99.90
52016;DHT22;38032;53.326;6.472;2022-12-18T09:33:00;-1.40;99.90
52016;DHT22;38032;53.326;6.472;2022-12-18T09:35:26;-1.30;99.90
52016;DHT22;38032;53.326;6.472;2022-12-18T09:37:53;-1.30;99.90
52016;DHT22;38032;53.326;6.472;2022-12-18T09:40:23;-1.20;99.90
52016;DHT22;38032;53.326;6.472;2022-12-18T09:42:56;-1.20;99.90
52016;DHT22;38032;53.326;6.472;2022-12-18T09:45:23;-1.20;99.90
52016;DHT22;38032;53.326;6.472;2022-12-18T09:47:51;-1.20;99.90
52016;DHT22;38032;53.326;6.472;2022-12-18T09:50:27;-1.30;99.90
52016;DHT22;38032;53.326;6.472;2022-12-18T09:52:57;-1.30;99.90
52016;DHT22;38032;53.326;6.472;2022-12-18T09:55:33;-1.40;99.90
52016;DHT22;38032;53.326;6.472;2022-12-18T09:58:06;-1.50;99.90
52016;DHT22;38032;53.326;6.472;2022-12-18T10:00:33;-1.50;99.90
52016;DHT22;38032;53.326;6.472;2022-12-18T10:03:10;-1.40;99.90
52016;DHT22;38032;53.326;6.472;2022-12-18T10:05:42;-1.40;99.90
52016;DHT22;38032;53.326;6.472;2022-12-18T10:08:13;-1.40;99.90
52016;DHT22;38032;53.326;6.472;2022-12-18T10:10:47;-1.30;99.90
52016;DHT22;38032;53.326;6.472;2022-12-18T10:13:23;-1.10;99.90
52016;DHT22;38032;53.326;6.472;2022-12-18T10:16:10;-0.90;99.90
52016;DHT22;38032;53.326;6.472;2022-12-18T10:18:44;-0.70;99.90
52016;DHT22;38032;53.326;6.472;2022-12-18T10:21:19;-0.60;99.90
52016;DHT22;38032;53.326;6.472;2022-12-18T10:24:12;-0.40;99.90
52016;DHT22;38032;53.326;6.472;2022-12-18T10:26:40;-0.40;99.90
52016;DHT22;38032;53.326;6.472;2022-12-18T10:29:12;-0.40;99.90
52016;DHT22;38032;53.326;6.472;2022-12-18T10:31:38;-0.30;99.90
52016;DHT22;38032;53.326;6.472;2022-12-18T10:34:07;-0.20;99.90
52016;DHT22;38032;53.326;6.472;2022-12-18T10:36:34;-0.10;99.90
52016;DHT22;38032;53.326;6.472;2022-12-18T10:39:16;-0.10;99.90
52016;DHT22;38032;53.326;6.472;2022-12-18T10:41:43;-0.10;99.90
52016;DHT22;38032;53.326;6.472;2022-12-18T10:44:22;-0.20;99.90
52016;DHT22;38032;53.326;6.472;2022-12-18T10:46:51;-0.20;99.90
52016;DHT22;38032;53.326;6.472;2022-12-18T10:49:26;-0.30;99.90
52016;DHT22;38032;53.326;6.472;2022-12-18T10:52:11;-0.30;99.90
52016;DHT22;38032;53.326;6.472;2022-12-18T10:54:39;-0.30;99.90
52016;DHT22;38032;53.326;6.472;2022-12-18T10:57:27;-0.40;99.90
52016;DHT22;38032;53.326;6.472;2022-12-18T10:59:57;-0.40;99.90
52016;DHT22;38032;53.326;6.472;2022-12-18T11:02:37;-0.40;99.90
52016;DHT22;38032;53.326;6.472;2022-12-18T11:05:29;-0.40;99.90
52016;DHT22;38032;53.326;6.472;2022-12-18T11:07:56;-0.50;99.90
52016;DHT22;38032;53.326;6.472;2022-12-18T11:10:28;-0.50;99.90
52016;DHT22;38032;53.326;6.472;2022-12-18T11:12:54;-0.50;99.90
52016;DHT22;38032;53.326;6.472;2022-12-18T11:15:26;-0.50;99.90
52016;DHT22;38032;53.326;6.472;2022-12-18T11:17:53;-0.50;99.90
52016;DHT22;38032;53.326;6.472;2022-12-18T11:22:56;-0.50;99.90
52016;DHT22;38032;53.326;6.472;2022-12-18T11:25:23;-0.50;99.90
52016;DHT22;38032;53.326;6.472;2022-12-18T11:27:55;-0.50;99.90
52016;DHT22;38032;53.326;6.472;2022-12-18T11:35:38;-0.40;99.90
52016;DHT22;38032;53.326;6.472;2022-12-18T11:38:16;-0.40;99.90
52016;DHT22;38032;53.326;6.472;2022-12-18T11:40:45;-0.30;99.90
52016;DHT22;38032;53.326;6.472;2022-12-18T11:43:16;-0.30;99.90
52016;DHT22;38032;53.326;6.472;2022-12-18T11:45:51;-0.30;99.90
52016;DHT22;38032;53.326;6.472;2022-12-18T11:48:27;-0.20;99.90
52016;DHT22;38032;53.326;6.472;2022-12-18T11:50:57;-0.20;99.90
52016;DHT22;38032;53.326;6.472;2022-12-18T11:53:26;-0.10;99.90
52016;DHT22;38032;53.326;6.472;2022-12-18T11:58:42;-0.10;99.90
52016;DHT22;38032;53.326;6.472;2022-12-18T12:04:08;-0.20;99.90
52016;DHT22;38032;53.326;6.472;2022-12-18T12:09:46;-0.20;99.90
52016;DHT22;38032;53.326;6.472;2022-12-18T12:18:00;-0.10;99.90
52016;DHT22;38032;53.326;6.472;2022-12-18T12:20:53;0.00;99.90
52016;DHT22;38032;53.326;6.472;2022-12-18T12:23:40;0.00;99.90
52016;DHT22;38032;53.326;6.472;2022-12-18T12:26:37;-0.10;99.90
52016;DHT22;38032;53.326;6.472;2022-12-18T12:29:09;0.00;99.90
52016;DHT22;38032;53.326;6.472;2022-12-18T12:31:52;0.00;99.90
52016;DHT22;38032;53.326;6.472;2022-12-18T12:34:23;0.00;99.90
52016;DHT22;38032;53.326;6.472;2022-12-18T12:37:19;0.00;99.90
52016;DHT22;38032;53.326;6.472;2022-12-18T12:39:48;0.00;99.90
52016;DHT22;38032;53.326;6.472;2022-12-18T12:42:33;0.00;99.90
52016;DHT22;38032;53.326;6.472;2022-12-18T12:45:26;0.00;99.90
52016;DHT22;38032;53.326;6.472;2022-12-18T12:47:54;-0.10;99.90
52016;DHT22;38032;53.326;6.472;2022-12-18T12:50:22;-0.20;99.90
52016;DHT22;38032;53.326;6.472;2022-12-18T12:52:54;-0.20;99.90
52016;DHT22;38032;53.326;6.472;2022-12-18T12:55:25;-0.30;99.90
52016;DHT22;38032;53.326;6.472;2022-12-18T12:58:18;-0.30;99.90
52016;DHT22;38032;53.326;6.472;2022-12-18T13:00:49;-0.30;99.90
52016;DHT22;38032;53.326;6.472;2022-12-18T13:03:35;-0.30;99.90
52016;DHT22;38032;53.326;6.472;2022-12-18T13:06:12;-0.30;99.90
52016;DHT22;38032;53.326;6.472;2022-12-18T13:08:55;-0.30;99.90
52016;DHT22;38032;53.326;6.472;2022-12-18T13:11:32;-0.30;99.90
52016;DHT22;38032;53.326;6.472;2022-12-18T13:14:33;-0.30;99.90
52016;DHT22;38032;53.326;6.472;2022-12-18T13:19:51;-0.30;99.90
52016;DHT22;38032;53.326;6.472;2022-12-18T13:22:23;-0.20;99.90
52016;DHT22;38032;53.326;6.472;2022-12-18T13:24:50;-0.20;99.90
52016;DHT22;38032;53.326;6.472;2022-12-18T13:36:09;-0.10;99.90
52016;DHT22;38032;53.326;6.472;2022-12-18T13:38:37;-0.10;99.90
52016;DHT22;38032;53.326;6.472;2022-12-18T13:41:23;-0.10;99.90
52016;DHT22;38032;53.326;6.472;2022-12-18T13:43:52;-0.10;99.90
52016;DHT22;38032;53.326;6.472;2022-12-18T13:46:21;-0.10;99.90
52016;DHT22;38032;53.326;6.472;2022-12-18T13:49:17;-0.10;99.90
52016;DHT22;38032;53.326;6.472;2022-12-18T13:51:49;-0.10;99.90
52016;DHT22;38032;53.326;6.472;2022-12-18T13:54:24;-0.10;99.90
52016;DHT22;38032;53.326;6.472;2022-12-18T13:56:50;-0.10;99.90
52016;DHT22;38032;53.326;6.472;2022-12-18T13:59:24;-0.10;99.90
52016;DHT22;38032;53.326;6.472;2022-12-18T14:01:58;0.00;99.90
52016;DHT22;38032;53.326;6.472;2022-12-18T14:04:28;0.00;99.90
52016;DHT22;38032;53.326;6.472;2022-12-18T14:06:58;0.00;99.90
52016;DHT22;38032;53.326;6.472;2022-12-18T14:09:31;0.00;99.90
52016;DHT22;38032;53.326;6.472;2022-12-18T14:11:57;0.00;99.90
52016;DHT22;38032;53.326;6.472;2022-12-18T14:14:45;0.00;99.90
52016;DHT22;38032;53.326;6.472;2022-12-18T14:17:13;0.00;99.90
52016;DHT22;38032;53.326;6.472;2022-12-18T14:19:42;0.00;99.90
52016;DHT22;38032;53.326;6.472;2022-12-18T14:22:17;0.00;99.90
52016;DHT22;38032;53.326;6.472;2022-12-18T14:24:43;0.00;99.90
52016;DHT22;38032;53.326;6.472;2022-12-18T14:27:20;0.00;99.90
52016;DHT22;38032;53.326;6.472;2022-12-18T14:29:47;0.00;99.90
52016;DHT22;38032;53.326;6.472;2022-12-18T14:32:16;0.00;99.90
52016;DHT22;38032;53.326;6.472;2022-12-18T14:34:44;0.00;99.90
52016;DHT22;38032;53.326;6.472;2022-12-18T14:37:12;0.00;99.90
52016;DHT22;38032;53.326;6.472;2022-12-18T14:39:38;0.00;99.90
52016;DHT22;38032;53.326;6.472;2022-12-18T14:42:04;-0.10;99.90
52016;DHT22;38032;53.326;6.472;2022-12-18T14:44:30;-0.10;99.90
52016;DHT22;38032;53.326;6.472;2022-12-18T14:46:56;-0.20;99.90
52016;DHT22;38032;53.326;6.472;2022-12-18T14:49:33;-0.20;99.90
52016;DHT22;38032;53.326;6.472;2022-12-18T14:52:02;-0.20;99.90
52016;DHT22;38032;53.326;6.472;2022-12-18T14:54:29;-0.20;99.90
52016;DHT22;38032;53.326;6.472;2022-12-18T14:57:24;-0.20;99.90
52016;DHT22;38032;53.326;6.472;2022-12-18T14:59:50;-0.20;99.90
52016;DHT22;38032;53.326;6.472;2022-12-18T15:02:23;-0.20;99.90
52016;DHT22;38032;53.326;6.472;2022-12-18T15:05:04;-0.30;99.90
52016;DHT22;38032;53.326;6.472;2022-12-18T15:07:43;-0.30;99.90
52016;DHT22;38032;53.326;6.472;2022-12-18T15:10:13;-0.30;99.90
52016;DHT22;38032;53.326;6.472;2022-12-18T15:12:45;-0.30;99.90
52016;DHT22;38032;53.326;6.472;2022-12-18T15:18:17;-0.40;99.90
52016;DHT22;38032;53.326;6.472;2022-12-18T15:20:48;-0.50;99.90
52016;DHT22;38032;53.326;6.472;2022-12-18T15:25:49;-0.70;99.90
52016;DHT22;38032;53.326;6.472;2022-12-18T15:28:31;-0.80;99.90
52016;DHT22;38032;53.326;6.472;2022-12-18T15:33:36;-0.90;99.90
52016;DHT22;38032;53.326;6.472;2022-12-18T15:36:10;-1.00;99.90
52016;DHT22;38032;53.326;6.472;2022-12-18T15:38:37;-1.10;99.90
52016;DHT22;38032;53.326;6.472;2022-12-18T15:41:03;-1.20;99.90
52016;DHT22;38032;53.326;6.472;2022-12-18T15:43:32;-1.20;99.90
52016;DHT22;38032;53.326;6.472;2022-12-18T15:46:00;-1.20;99.90
52016;DHT22;38032;53.326;6.472;2022-12-18T15:48:26;-1.30;99.90
52016;DHT22;38032;53.326;6.472;2022-12-18T15:50:53;-1.20;99.90
52016;DHT22;38032;53.326;6.472;2022-12-18T15:53:24;-1.20;99.90
52016;DHT22;38032;53.326;6.472;2022-12-18T15:55:50;-1.30;99.90
52016;DHT22;38032;53.326;6.472;2022-12-18T15:58:34;-1.30;99.90
52016;DHT22;38032;53.326;6.472;2022-12-18T16:01:01;-1.40;99.90
52016;DHT22;38032;53.326;6.472;2022-12-18T16:03:28;-1.40;99.90
52016;DHT22;38032;53.326;6.472;2022-12-18T16:05:54;-1.30;99.90
52016;DHT22;38032;53.326;6.472;2022-12-18T16:08:20;-1.30;99.90
52016;DHT22;38032;53.326;6.472;2022-12-18T16:10:46;-1.30;99.90
52016;DHT22;38032;53.326;6.472;2022-12-18T16:13:13;-1.20;99.90
52016;DHT22;38032;53.326;6.472;2022-12-18T16:15:40;-1.20;99.90
52016;DHT22;38032;53.326;6.472;2022-12-18T16:18:06;-1.20;99.90
52016;DHT22;38032;53.326;6.472;2022-12-18T16:20:32;-1.10;99.90
52016;DHT22;38032;53.326;6.472;2022-12-18T16:22:57;-1.00;99.90
52016;DHT22;38032;53.326;6.472;2022-12-18T16:25:26;-1.00;99.90
52016;DHT22;38032;53.326;6.472;2022-12-18T16:27:54;-1.00;99.90
52016;DHT22;38032;53.326;6.472;2022-12-18T16:30:22;-1.00;99.90
52016;DHT22;38032;53.326;6.472;2022-12-18T16:32:49;-0.90;99.90
52016;DHT22;38032;53.326;6.472;2022-12-18T16:35:16;-0.90;99.90
52016;DHT22;38032;53.326;6.472;2022-12-18T16:37:43;-0.90;99.90
52016;DHT22;38032;53.326;6.472;2022-12-18T16:40:11;-0.90;99.90
52016;DHT22;38032;53.326;6.472;2022-12-18T16:42:39;-0.90;99.90
52016;DHT22;38032;53.326;6.472;2022-12-18T16:45:08;-0.90;99.90